Time;durP1;ratioP1;P1;durP2;ratioP2;P2;SDS_P1;SDS_P2;PMS_P1;PMS_P2;Temp;Humidity;BMP_temperature;BMP_pressure;BME280_temperature;BME280_humidity;BME280_pressure;Samples;Min_cycle;Max_cycle;Signal;HPM_P1;HPM_P2
2022/06/30 00:01:48;;;;;;;67.30;41.72;;;;;;;17.98;100.00;96407.13;10412468;28;20219;-60
2022/06/30 00:06:50;;;;;;;66.57;40.78;;;;;;;18.06;100.00;96404.22;10412145;28;20243;-61
2022/06/30 00:11:50;;;;;;;80.35;45.28;;;;;;;17.93;100.00;96393.69;10411916;28;20228;-61
2022/06/30 00:16:51;;;;;;;70.72;43.83;;;;;;;18.07;100.00;96394.44;10411794;28;20585;-61
2022/06/30 00:21:51;;;;;;;74.07;43.92;;;;;;;18.07;100.00;96389.94;10411826;28;20641;-59
2022/06/30 00:26:51;;;;;;;76.38;45.05;;;;;;;18.11;100.00;96383.19;10411406;28;20597;-61
2022/06/30 00:31:52;;;;;;;89.38;45.65;;;;;;;17.87;100.00;96384.72;10411481;28;20641;-59
2022/06/30 00:36:52;;;;;;;70.30;41.65;;;;;;;17.89;100.00;96389.84;10411125;28;20562;-61
2022/06/30 00:41:52;;;;;;;69.57;39.70;;;;;;;17.89;100.00;96373.94;10411137;28;20212;-61
2022/06/30 00:46:53;;;;;;;59.63;38.28;;;;;;;17.77;100.00;96379.84;10411344;28;20181;-60
2022/06/30 00:51:53;;;;;;;72.65;39.75;;;;;;;17.78;100.00;96385.97;10409570;28;20232;-59
2022/06/30 00:56:55;;;;;;;80.88;43.83;;;;;;;17.58;100.00;96383.38;10410996;28;20250;-61
2022/06/30 01:01:55;;;;;;;123.57;48.38;;;;;;;17.43;100.00;96373.88;10409526;28;20205;-58
2022/06/30 01:06:56;;;;;;;89.57;44.25;;;;;;;17.45;100.00;96373.66;10410655;28;20208;-61
2022/06/30 01:17:15;;;;;;;91.97;46.25;;;;;;;17.33;100.00;96385.91;10410870;28;20200;-61
2022/06/30 01:22:15;;;;;;;79.13;40.88;;;;;;;17.37;100.00;96380.00;10410734;28;20652;-60
2022/06/30 01:27:16;;;;;;;70.60;38.47;;;;;;;17.31;100.00;96372.88;10410197;28;20283;-61
2022/06/30 01:32:17;;;;;;;69.40;38.20;;;;;;;17.23;100.00;96379.22;10410091;28;20229;-60
2022/06/30 01:37:17;;;;;;;62.60;36.78;;;;;;;17.24;100.00;96380.84;10410615;28;20659;-61
2022/06/30 01:42:17;;;;;;;50.25;32.90;;;;;;;17.31;100.00;96386.13;10417819;28;20228;-60
2022/06/30 01:47:18;;;;;;;46.05;31.27;;;;;;;17.31;100.00;96378.16;10417417;28;20192;-61
2022/06/30 01:52:18;;;;;;;45.78;31.25;;;;;;;17.18;100.00;96367.59;10416970;28;20236;-61
2022/06/30 01:57:18;;;;;;;56.08;33.00;;;;;;;17.03;100.00;96363.38;10417132;28;20200;-60
2022/06/30 02:02:19;;;;;;;51.53;34.15;;;;;;;17.00;100.00;96365.59;10416864;28;20208;-61
2022/06/30 02:07:21;;;;;;;42.92;30.95;;;;;;;17.03;100.00;96370.47;10416544;28;20663;-61
2022/06/30 02:17:42;;;;;;;38.08;28.00;;;;;;;16.99;100.00;96356.84;10421271;28;20224;-61
2022/06/30 02:22:42;;;;;;;37.58;27.77;;;;;;;16.99;100.00;96353.41;10416422;28;20208;-61
2022/06/30 02:27:43;;;;;;;37.55;28.00;;;;;;;16.98;100.00;96352.56;10415829;28;20662;-61
2022/06/30 02:32:43;;;;;;;31.98;24.40;;;;;;;16.90;100.00;96358.88;10415316;28;20733;-61
2022/06/30 02:37:44;;;;;;;38.35;28.17;;;;;;;16.87;100.00;96354.00;10415567;28;20537;-59
2022/06/30 02:42:44;;;;;;;39.17;29.15;;;;;;;16.97;100.00;96353.59;10415282;28;20209;-61
2022/06/30 02:47:45;;;;;;;41.95;29.45;;;;;;;16.84;100.00;96356.22;10415299;28;20215;-61
2022/06/30 02:52:45;;;;;;;43.10;30.80;;;;;;;16.81;100.00;96370.66;10446136;22;20661;-60
2022/06/30 02:57:46;;;;;;;46.92;31.95;;;;;;;16.87;100.00;96385.75;10414626;28;20283;-60
2022/06/30 03:02:46;;;;;;;41.85;30.02;;;;;;;16.76;100.00;96387.16;10414407;28;20250;-60
2022/06/30 03:07:47;;;;;;;45.15;29.77;;;;;;;16.67;100.00;96385.72;10414263;28;20201;-60
2022/06/30 03:12:47;;;;;;;46.55;30.50;;;;;;;16.65;100.00;96385.13;10414039;28;20695;-60
2022/06/30 03:17:47;;;;;;;44.40;30.95;;;;;;;16.66;100.00;96392.06;10413675;28;20637;-60
2022/06/30 03:22:48;;;;;;;45.58;29.33;;;;;;;16.84;100.00;96382.69;10413750;28;20296;-60
2022/06/30 03:27:48;;;;;;;37.35;27.45;;;;;;;16.63;100.00;96394.28;10413336;28;20192;-58
2022/06/30 03:32:48;;;;;;;41.88;25.63;;;;;;;16.64;100.00;96396.72;10412838;28;20239;-60
2022/06/30 03:37:49;;;;;;;34.63;25.02;;;;;;;16.72;100.00;96404.47;10413128;28;20291;-59
2022/06/30 03:42:50;;;;;;;44.00;29.52;;;;;;;16.69;100.00;96406.69;10412818;28;20239;-60
2022/06/30 03:47:50;;;;;;;37.72;26.77;;;;;;;16.70;100.00;96403.03;10412802;28;20196;-58
2022/06/30 03:52:51;;;;;;;31.77;25.95;;;;;;;16.80;100.00;96415.84;10412294;28;20232;-60
2022/06/30 03:57:52;;;;;;;31.38;24.85;;;;;;;16.98;100.00;96416.06;10412442;28;20201;-60
2022/06/30 04:02:52;;;;;;;30.40;23.92;;;;;;;16.94;100.00;96418.31;10411652;28;20205;-60
2022/06/30 04:07:53;;;;;;;29.90;23.95;;;;;;;16.97;100.00;96413.63;10412072;28;20196;-60
2022/06/30 04:12:53;;;;;;;33.17;23.88;;;;;;;17.31;100.00;96414.44;10411962;28;20303;-60
2022/06/30 04:17:54;;;;;;;26.13;23.08;;;;;;;17.31;100.00;96399.34;10411817;28;20204;-60
2022/06/30 04:22:54;;;;;;;26.63;23.20;;;;;;;17.43;100.00;96397.69;10411659;28;20208;-60
2022/06/30 04:27:58;;;;;;;28.50;22.17;;;;;;;17.61;100.00;96385.63;10411637;28;20203;-60
2022/06/30 04:32:58;;;;;;;34.13;25.10;;;;;;;17.28;100.00;96374.09;10411037;28;20282;-57
2022/06/30 04:37:59;;;;;;;33.95;24.98;;;;;;;17.46;100.00;96365.50;10411421;28;20185;-58
2022/06/30 04:42:59;;;;;;;32.17;24.20;;;;;;;17.79;100.00;96369.03;10411258;28;20216;-60
2022/06/30 04:48:00;;;;;;;28.95;22.75;;;;;;;17.87;100.00;96368.00;10412791;28;20246;-60
2022/06/30 04:53:00;;;;;;;30.17;23.08;;;;;;;17.91;100.00;96370.03;10410974;28;20235;-60
2022/06/30 04:58:01;;;;;;;34.03;24.20;;;;;;;17.89;100.00;96377.41;10410882;28;20287;-59
2022/06/30 05:03:01;;;;;;;31.48;24.67;;;;;;;17.82;100.00;96366.81;10411033;28;20200;-60
2022/06/30 05:08:02;;;;;;;31.67;24.52;;;;;;;17.92;100.00;96373.53;10410756;28;20192;-59
2022/06/30 05:13:02;;;;;;;32.40;24.50;;;;;;;17.92;100.00;96373.53;10412420;28;20234;-59
2022/06/30 05:18:02;;;;;;;29.33;23.35;;;;;;;18.08;100.00;96362.41;10418965;28;20184;-58
2022/06/30 05:23:03;;;;;;;32.25;25.23;;;;;;;18.10;100.00;96364.84;10418231;28;20209;-60
2022/06/30 05:28:04;;;;;;;31.10;24.60;;;;;;;18.31;100.00;96366.34;10418448;28;20667;-60
2022/06/30 05:33:04;;;;;;;28.35;23.98;;;;;;;18.57;100.00;96359.25;10417361;28;20592;-60
2022/06/30 05:38:04;;;;;;;29.88;23.73;;;;;;;18.90;100.00;96359.00;10417948;28;20570;-58
2022/06/30 05:43:05;;;;;;;26.02;22.05;;;;;;;19.33;100.00;96355.50;10417613;28;20591;-55
2022/06/30 05:48:05;;;;;;;25.60;20.02;;;;;;;19.59;100.00;96341.13;10417196;28;20561;-58
2022/06/30 05:53:06;;;;;;;23.10;19.60;;;;;;;20.00;100.00;96333.47;10417228;28;20692;-55
2022/06/30 05:58:06;;;;;;;24.05;20.60;;;;;;;19.63;100.00;96335.34;10416814;28;20247;-56
2022/06/30 06:03:07;;;;;;;21.50;18.98;;;;;;;20.13;100.00;96333.28;10417134;28;20224;-59
2022/06/30 06:08:10;;;;;;;24.65;20.15;;;;;;;20.04;100.00;96331.97;10416651;28;20727;-56
2022/06/30 06:13:13;;;;;;;25.52;20.60;;;;;;;20.53;100.00;96350.50;10416319;28;20231;-59
2022/06/30 06:18:14;;;;;;;23.63;18.27;;;;;;;21.17;100.00;96348.00;10416599;28;20189;-60
2022/06/30 06:23:15;;;;;;;19.23;16.33;;;;;;;22.34;100.00;96336.47;10415506;28;20243;-60
2022/06/30 06:33:34;;;;;;;17.92;14.73;;;;;;;23.69;100.00;96327.47;10414966;28;20240;-59
2022/06/30 06:38:35;;;;;;;16.70;14.10;;;;;;;24.17;96.67;96317.84;10415759;28;20219;-59
2022/06/30 06:43:35;;;;;;;15.73;12.23;;;;;;;23.23;100.00;96319.72;10415286;28;20742;-58
2022/06/30 06:48:36;;;;;;;33.03;15.15;;;;;;;21.02;100.00;96345.00;10415148;28;20721;-59
2022/06/30 06:53:37;;;;;;;18.98;14.52;;;;;;;21.75;100.00;96350.06;10414578;28;20367;-60
2022/06/30 06:58:37;;;;;;;15.80;11.95;;;;;;;23.08;100.00;96320.28;10414706;28;20196;-60
2022/06/30 07:03:38;;;;;;;15.52;12.35;;;;;;;23.18;100.00;96318.81;10414597;28;20227;-58
2022/06/30 07:08:39;;;;;;;15.02;12.00;;;;;;;22.71;100.00;96326.16;10414295;28;20242;-59
2022/06/30 07:13:39;;;;;;;17.80;13.70;;;;;;;23.30;100.00;96322.19;10414167;28;20232;-60
2022/06/30 07:18:39;;;;;;;15.80;12.43;;;;;;;23.18;100.00;96324.16;10414085;28;20831;-60
2022/06/30 07:23:40;;;;;;;13.70;12.32;;;;;;;23.67;96.23;96311.69;10413587;28;20232;-59
2022/06/30 07:28:42;;;;;;;13.98;11.70;;;;;;;24.67;91.20;96312.41;10413517;28;20201;-60
2022/06/30 07:33:42;;;;;;;12.27;11.02;;;;;;;25.95;88.23;96328.38;10412646;28;20566;-59
2022/06/30 07:38:44;;;;;;;10.60;9.60;;;;;;;27.59;75.46;96244.94;10412519;28;20193;-60
2022/06/30 07:43:44;;;;;;;12.00;10.60;;;;;;;28.06;73.21;96272.41;10412950;28;20213;-55
2022/06/30 07:48:46;;;;;;;15.20;11.30;;;;;;;28.47;71.80;96274.81;10412905;28;20192;-58
2022/06/30 07:53:47;;;;;;;11.00;9.98;;;;;;;28.68;71.27;96274.66;10412411;28;20236;-58
2022/06/30 07:58:48;;;;;;;12.82;11.02;;;;;;;26.70;76.61;96322.63;10412466;28;20203;-54
2022/06/30 08:03:48;;;;;;;14.00;11.27;;;;;;;26.80;77.78;96319.94;10412320;28;20211;-58
2022/06/30 08:08:48;;;;;;;13.82;10.75;;;;;;;27.20;78.13;96323.63;10412302;28;20208;-58
2022/06/30 08:13:49;;;;;;;17.95;12.32;;;;;;;27.37;75.52;96309.88;10411921;28;20224;-58
2022/06/30 08:18:49;;;;;;;12.52;11.23;;;;;;;27.69;73.51;96280.97;10411919;28;20199;-57
2022/06/30 08:23:49;;;;;;;12.77;10.57;;;;;;;27.96;73.70;96290.53;10411515;28;20220;-57
2022/06/30 08:28:50;;;;;;;13.93;12.48;;;;;;;27.97;74.16;96292.16;10411127;28;20428;-56
2022/06/30 08:33:52;;;;;;;13.37;11.87;;;;;;;28.69;72.68;96291.66;10410680;28;20224;-59
2022/06/30 08:38:52;;;;;;;14.27;12.30;;;;;;;28.51;72.77;96295.81;10411216;28;20538;-59
2022/06/30 08:43:53;;;;;;;15.50;12.93;;;;;;;28.86;73.61;96307.41;10411555;28;20295;-58
2022/06/30 08:48:54;;;;;;;12.25;10.57;;;;;;;29.84;67.05;96237.72;10416471;28;20438;-59
2022/06/30 08:54:00;;;;;;;17.20;12.20;;;;;;;29.43;68.11;96253.66;10440958;22;20224;-59
2022/06/30 08:59:02;;;;;;;13.05;10.73;;;;;;;29.00;66.43;96236.34;10419612;28;20189;-59
2022/06/30 09:04:02;;;;;;;15.05;12.50;;;;;;;28.50;67.23;96251.91;10419042;28;20722;-59
2022/06/30 09:09:04;;;;;;;16.17;14.32;;;;;;;26.91;75.71;96315.34;10401521;28;20243;-60
2022/06/30 09:14:04;;;;;;;18.73;14.98;;;;;;;25.92;81.65;96353.88;10418843;28;20221;-60
2022/06/30 09:19:05;;;;;;;17.60;14.57;;;;;;;25.70;83.08;96323.75;10419164;28;20192;-61
2022/06/30 09:24:21;;;;;;;16.48;14.77;;;;;;;25.62;85.11;96319.69;10418962;28;20752;-61
2022/06/30 09:29:21;;;;;;;19.88;15.55;;;;;;;25.75;84.81;96331.81;10418248;28;20192;-62
2022/06/30 09:34:22;;;;;;;19.65;17.33;;;;;;;26.52;80.39;96308.63;10417168;28;20252;-60
2022/06/30 09:39:22;;;;;;;24.08;14.75;;;;;;;28.48;75.03;96286.38;10417919;28;20568;-57
2022/06/30 09:44:24;;;;;;;14.75;13.05;;;;;;;29.83;66.07;96227.22;10417672;28;20282;-59
2022/06/30 09:49:31;;;;;;;16.08;12.70;;;;;;;30.11;66.89;96243.56;10417686;28;20196;-59
2022/06/30 09:54:33;;;;;;;16.08;12.32;;;;;;;30.62;64.11;96223.81;10417072;28;20238;-60
2022/06/30 09:59:34;;;;;;;18.38;13.15;;;;;;;28.97;69.70;96271.97;10416460;28;20286;-58
2022/06/30 10:04:54;;;;;;;17.05;12.70;;;;;;;29.65;65.70;96250.41;10416724;28;20710;-58
2022/06/30 10:09:55;;;;;;;16.63;13.07;;;;;;;28.64;69.43;96285.22;10416680;28;20231;-59
2022/06/30 10:14:56;;;;;;;18.65;13.55;;;;;;;28.32;70.86;96274.16;10416525;28;20216;-61
2022/06/30 10:19:57;;;;;;;16.60;14.77;;;;;;;28.54;73.55;96298.72;10416366;28;20216;-57
2022/06/30 10:24:58;;;;;;;18.58;14.48;;;;;;;29.78;68.99;96246.97;10416330;28;20208;-59
2022/06/30 10:30:01;;;;;;;20.30;14.77;;;;;;;29.65;68.93;96263.91;10415314;28;20188;-60
2022/06/30 10:35:07;;;;;;;14.32;12.82;;;;;;;29.13;68.55;96247.53;10415805;28;20216;-59
2022/06/30 10:40:28;;;;;;;25.98;14.40;;;;;;;28.83;68.75;96247.53;10397794;28;20211;-58
2022/06/30 10:45:29;;;;;;;20.75;13.35;;;;;;;27.97;70.51;96249.88;10397740;28;20215;-60
2022/06/30 10:50:34;;;;;;;14.48;11.93;;;;;;;27.72;69.21;96238.16;10414780;28;20221;-61
2022/06/30 10:55:43;;;;;;;14.48;11.30;;;;;;;27.09;71.95;96259.38;10414811;28;20260;-62
2022/06/30 11:00:56;;;;;;;14.43;12.65;;;;;;;26.82;76.26;96306.22;10414455;28;20181;-60
2022/06/30 11:05:57;;;;;;;14.55;12.50;;;;;;;27.12;74.92;96294.59;10414456;28;20232;-62
2022/06/30 11:10:58;;;;;;;15.80;13.38;;;;;;;26.77;77.27;96306.22;10413326;28;20221;-60
2022/06/30 11:15:58;;;;;;;18.47;14.87;;;;;;;27.66;74.04;96278.84;10413894;28;20585;-60
2022/06/30 11:20:58;;;;;;;17.70;14.33;;;;;;;29.25;69.57;96252.53;10414156;28;20876;-57
2022/06/30 11:31:35;;;;;;;18.88;14.52;;;;;;;28.93;68.20;96248.53;10398144;28;20847;-58
2022/06/30 11:36:38;;;;;;;17.98;15.20;;;;;;;28.57;70.80;96251.56;10412946;28;20220;-60
2022/06/30 11:41:55;;;;;;;27.35;19.15;;;;;;;28.32;70.61;96247.19;10413281;28;20239;-59
2022/06/30 11:47:01;;;;;;;21.17;18.17;;;;;;;27.75;72.58;96264.50;10412750;28;20208;-62
2022/06/30 11:52:09;;;;;;;23.85;17.45;;;;;;;27.26;75.36;96284.06;10412935;28;20290;-61
2022/06/30 11:57:09;;;;;;;23.92;17.63;;;;;;;27.25;76.13;96277.06;10412185;28;20240;-60
2022/06/30 12:02:10;;;;;;;21.70;19.00;;;;;;;26.42;80.67;96299.75;10412412;28;20189;-61
2022/06/30 12:07:13;;;;;;;29.27;26.10;;;;;;;26.85;79.56;96289.56;10412142;28;20544;-60
2022/06/30 12:12:17;;;;;;;22.45;18.67;;;;;;;26.54;81.44;96294.94;10412018;28;20216;-62
2022/06/30 12:17:18;;;;;;;22.52;19.27;;;;;;;26.66;80.47;96292.81;10412005;28;20303;-62
2022/06/30 12:22:19;;;;;;;23.33;20.87;;;;;;;26.06;85.63;96323.88;10409125;28;20508;-59
2022/06/30 12:27:31;;;;;;;58.13;29.38;;;;;;;24.60;100.00;96342.09;10412061;28;20212;-62
2022/06/30 12:32:32;;;;;;;39.95;28.35;;;;;;;23.56;100.00;96341.25;10411118;28;20216;-62
2022/06/30 12:37:43;;;;;;;44.88;35.17;;;;;;;23.33;100.00;96335.06;10411804;28;20232;-63
2022/06/30 12:42:45;;;;;;;53.97;38.30;;;;;;;23.23;100.00;96330.41;10411535;28;20273;-61
2022/06/30 12:47:46;;;;;;;41.72;32.80;;;;;;;23.40;100.00;96329.53;10411142;28;20781;-62
2022/06/30 12:52:46;;;;;;;55.05;34.42;;;;;;;23.24;100.00;96328.53;10411348;28;20223;-61
2022/06/30 12:57:48;;;;;;;40.13;32.05;;;;;;;23.61;100.00;96320.69;10410633;28;20240;-62
2022/06/30 13:02:48;;;;;;;37.72;29.08;;;;;;;23.78;100.00;96317.16;10411330;28;20184;-62
2022/06/30 13:07:48;;;;;;;36.20;27.23;;;;;;;24.22;100.00;96295.69;10410655;28;20204;-62
2022/06/30 13:12:49;;;;;;;36.67;29.42;;;;;;;23.95;100.00;96295.69;10410879;28;20699;-60
2022/06/30 13:17:49;;;;;;;31.92;28.35;;;;;;;24.38;100.00;96304.69;10410747;28;20779;-62
2022/06/30 13:22:49;;;;;;;33.40;28.35;;;;;;;24.85;100.00;96303.16;10410321;28;20663;-61
2022/06/30 13:27:50;;;;;;;29.13;26.03;;;;;;;25.17;100.00;96296.94;10410565;28;20695;-62
2022/06/30 13:32:50;;;;;;;34.70;26.20;;;;;;;25.70;100.00;96294.25;10409787;28;21080;-62
2022/06/30 13:37:50;;;;;;;24.08;21.52;;;;;;;27.07;100.00;96285.75;10419112;28;20686;-62
2022/06/30 13:42:51;;;;;;;29.77;22.67;;;;;;;27.70;100.00;96285.25;10418009;28;20255;-61
2022/06/30 13:47:51;;;;;;;22.50;20.00;;;;;;;29.20;90.08;96274.13;10417271;28;20469;-61
2022/06/30 13:52:51;;;;;;;28.07;19.47;;;;;;;29.20;78.56;96239.06;10417559;28;20569;-60
2022/06/30 13:57:52;;;;;;;17.10;14.43;;;;;;;33.01;66.48;96165.63;10416838;28;20482;-59
2022/06/30 14:02:53;;;;;;;18.50;13.15;;;;;;;35.41;58.95;96149.09;10417416;28;20504;-59
2022/06/30 14:07:53;;;;;;;13.57;11.88;;;;;;;37.71;53.18;96128.66;10416949;28;20287;-60
2022/06/30 14:12:56;;;;;;;14.37;12.60;;;;;;;34.99;54.17;96100.00;10416769;28;20224;-60
2022/06/30 14:17:56;;;;;;;13.95;11.25;;;;;;;34.21;52.92;96076.63;10416568;28;20222;-60
2022/06/30 14:22:57;;;;;;;12.50;11.17;;;;;;;34.68;51.19;96056.78;10416275;28;20184;-60
2022/06/30 14:27:57;;;;;;;12.33;11.03;;;;;;;32.43;57.18;96125.97;10416205;28;20463;-59
2022/06/30 14:32:57;;;;;;;16.30;13.70;;;;;;;31.32;63.59;96194.09;10415194;28;20486;-60
2022/06/30 14:37:58;;;;;;;14.25;12.85;;;;;;;30.28;63.33;96172.75;10415693;28;20471;-61
2022/06/30 14:42:59;;;;;;;16.77;12.90;;;;;;;30.10;68.19;96210.34;10415909;28;20184;-62
2022/06/30 14:48:00;;;;;;;14.38;12.95;;;;;;;31.57;67.40;96209.81;10415185;28;20451;-61
2022/06/30 14:53:00;;;;;;;15.00;10.48;;;;;;;34.18;56.99;96101.75;10415400;28;20223;-62
2022/06/30 14:58:00;;;;;;;12.43;9.63;;;;;;;37.09;47.66;96029.63;10436087;22;20244;-57
2022/06/30 15:03:01;;;;;;;11.40;10.23;;;;;;;37.48;45.39;95994.44;10414767;28;20200;-58
2022/06/30 15:08:01;;;;;;;10.97;9.63;;;;;;;37.71;44.27;95991.19;10414319;28;20910;-58
2022/06/30 15:13:01;;;;;;;14.23;10.97;;;;;;;34.98;47.18;95982.16;10414572;28;20778;-55
2022/06/30 15:18:02;;;;;;;12.17;10.47;;;;;;;36.11;44.84;95978.63;10413833;28;20582;-59
2022/06/30 15:28:21;;;;;;;12.18;9.95;;;;;;;38.03;43.45;95997.44;10413643;28;20561;-61
2022/06/30 15:33:21;;;;;;;10.87;8.63;;;;;;;37.99;42.94;95994.59;10413253;28;20227;-61
2022/06/30 15:38:21;;;;;;;10.50;9.07;;;;;;;37.43;43.10;95978.28;10413239;28;20261;-60
2022/06/30 15:43:22;;;;;;;12.87;9.13;;;;;;;37.37;42.20;95952.38;10413314;28;20271;-60
2022/06/30 15:48:22;;;;;;;9.43;8.33;;;;;;;37.79;42.14;95968.31;10412974;28;20295;-60
2022/06/30 15:53:23;;;;;;;10.33;8.97;;;;;;;36.87;41.11;95908.09;10412709;28;20220;-61
2022/06/30 15:58:23;;;;;;;9.70;8.30;;;;;;;36.17;42.86;95909.09;10411821;28;20313;-61
2022/06/30 16:03:24;;;;;;;13.32;9.05;;;;;;;35.76;44.81;95944.41;10412656;28;20446;-61
2022/06/30 16:08:24;;;;;;;11.73;7.87;;;;;;;33.81;48.51;95958.13;10412029;28;20258;-60
2022/06/30 16:13:25;;;;;;;9.45;7.70;;;;;;;32.56;51.64;95997.63;10412323;28;20216;-60
2022/06/30 16:18:25;;;;;;;10.63;7.90;;;;;;;31.57;52.62;95985.09;10412016;28;20713;-60
2022/06/30 16:23:26;;;;;;;9.95;7.75;;;;;;;32.34;50.08;95955.94;10412271;28;20443;-60
2022/06/30 16:28:26;;;;;;;10.50;7.20;;;;;;;32.33;52.64;96011.28;10412332;28;20234;-60
2022/06/30 16:33:26;;;;;;;9.73;6.40;;;;;;;29.26;55.91;96004.03;10409517;28;20490;-60
2022/06/30 16:38:27;;;;;;;9.57;7.80;;;;;;;29.46;55.46;96002.88;10411493;28;20561;-60
2022/06/30 16:43:28;;;;;;;13.02;8.02;;;;;;;29.18;58.27;96059.41;10411082;28;20450;-60
2022/06/30 16:48:29;;;;;;;11.93;7.45;;;;;;;29.22;58.11;96059.69;10411223;28;20239;-60
2022/06/30 16:53:29;;;;;;;10.33;7.93;;;;;;;28.72;60.30;96076.22;10410997;28;20224;-60
2022/06/30 16:58:31;;;;;;;10.13;7.30;;;;;;;28.22;60.01;96067.59;10410374;28;20467;-59
2022/06/30 17:03:31;;;;;;;9.77;7.55;;;;;;;27.74;62.16;96093.31;10411124;28;20606;-60
2022/06/30 17:08:32;;;;;;;8.47;7.40;;;;;;;26.65;64.46;96121.88;10412968;28;20278;-60
2022/06/30 17:13:32;;;;;;;10.90;7.45;;;;;;;26.53;64.95;96107.94;10419076;28;20483;-60
2022/06/30 17:18:32;;;;;;;12.57;8.00;;;;;;;26.21;67.98;96141.31;10418537;28;20224;-60
2022/06/30 17:23:34;;;;;;;11.90;8.37;;;;;;;26.08;69.45;96153.41;10418428;28;20189;-58
2022/06/30 17:28:35;;;;;;;14.00;9.38;;;;;;;25.90;70.77;96153.94;10418524;28;20467;-59
2022/06/30 17:33:36;;;;;;;11.93;8.73;;;;;;;25.36;73.51;96158.69;10417345;28;20633;-58
2022/06/30 17:38:37;;;;;;;14.63;8.52;;;;;;;25.52;73.84;96156.84;10418017;28;20555;-56
2022/06/30 17:43:37;;;;;;;12.63;8.80;;;;;;;25.14;73.39;96155.38;10417690;28;20220;-57
2022/06/30 17:48:37;;;;;;;10.60;8.18;;;;;;;25.05;73.42;96155.06;10417497;28;20299;-56
2022/06/30 17:53:38;;;;;;;9.88;8.52;;;;;;;25.05;74.54;96171.16;10417510;28;20573;-59
2022/06/30 17:58:38;;;;;;;8.98;7.50;;;;;;;24.89;75.12;96176.47;10417269;28;20613;-58
2022/06/30 18:03:38;;;;;;;11.07;8.20;;;;;;;24.83;76.17;96182.06;10417060;28;20640;-58
2022/06/30 18:13:57;;;;;;;12.10;9.20;;;;;;;24.16;80.32;96203.81;10416457;28;20291;-59
2022/06/30 18:18:58;;;;;;;12.88;9.15;;;;;;;24.17;79.80;96186.72;10415789;28;20299;-57
2022/06/30 18:23:58;;;;;;;13.63;9.00;;;;;;;23.53;80.78;96189.34;10415941;28;20200;-59
2022/06/30 18:28:58;;;;;;;12.32;8.43;;;;;;;23.50;79.90;96186.09;10415929;28;20212;-58
2022/06/30 18:33:59;;;;;;;13.30;8.68;;;;;;;23.58;80.79;96184.03;10414880;28;20311;-59
2022/06/30 18:38:59;;;;;;;12.38;8.50;;;;;;;22.90;86.10;96197.69;10415577;28;20221;-59
2022/06/30 18:44:03;;;;;;;13.60;8.88;;;;;;;22.55;92.35;96193.47;10415267;28;20198;-58
2022/06/30 18:49:04;;;;;;;14.38;9.15;;;;;;;22.20;96.07;96189.19;10414945;28;20255;-59
2022/06/30 18:54:05;;;;;;;13.52;8.32;;;;;;;22.49;97.76;96199.78;10415167;28;20379;-59
2022/06/30 18:59:05;;;;;;;13.68;9.63;;;;;;;21.76;100.00;96207.66;10413021;28;20347;-60
2022/06/30 19:04:06;;;;;;;13.18;8.70;;;;;;;21.47;100.00;96202.31;10414735;28;20197;-58
2022/06/30 19:09:06;;;;;;;12.88;8.90;;;;;;;20.91;100.00;96210.84;10414368;28;20694;-59
2022/06/30 19:14:06;;;;;;;14.88;9.30;;;;;;;20.69;100.00;96212.47;10414022;28;20303;-58
2022/06/30 19:19:07;;;;;;;13.15;8.48;;;;;;;20.94;100.00;96210.38;10414152;28;20224;-58
2022/06/30 19:24:08;;;;;;;11.95;9.75;;;;;;;20.69;100.00;96220.47;10413674;28;20185;-59
2022/06/30 19:29:08;;;;;;;10.00;8.50;;;;;;;20.59;100.00;96224.50;10413756;28;20745;-59
2022/06/30 19:34:08;;;;;;;11.20;9.90;;;;;;;20.48;100.00;96242.09;10411505;28;20323;-59
2022/06/30 19:39:09;;;;;;;13.02;10.50;;;;;;;20.37;100.00;96248.22;10413127;28;20223;-58
2022/06/30 19:44:09;;;;;;;12.90;10.38;;;;;;;20.09;100.00;96255.00;10413092;28;20189;-57
2022/06/30 19:49:09;;;;;;;18.23;11.73;;;;;;;19.63;100.00;96259.09;10412429;28;20695;-53
2022/06/30 19:54:10;;;;;;;17.40;11.88;;;;;;;19.64;100.00;96263.38;10412722;28;20247;-52
2022/06/30 19:59:10;;;;;;;15.10;11.32;;;;;;;19.73;100.00;96272.66;10411956;28;20239;-58
2022/06/30 20:14:48;;;;;;;15.07;12.20;;;;;;;19.15;100.00;96275.84;10412101;28;20236;-55
2022/06/30 20:19:48;;;;;;;19.13;12.55;;;;;;;19.12;100.00;96289.56;10412065;28;20184;-56
2022/06/30 20:24:49;;;;;;;17.95;12.55;;;;;;;19.07;100.00;96283.06;10411672;28;20257;-58
2022/06/30 20:29:51;;;;;;;17.20;12.60;;;;;;;18.92;100.00;96279.16;10411765;28;20199;-57
2022/06/30 20:34:51;;;;;;;15.40;12.75;;;;;;;19.04;100.00;96278.19;10410999;28;20247;-51
2022/06/30 20:39:52;;;;;;;16.63;12.75;;;;;;;18.97;100.00;96276.63;10411673;28;20202;-57
2022/06/30 20:44:52;;;;;;;21.83;13.68;;;;;;;18.75;100.00;96271.72;10410930;28;20205;-55
2022/06/30 20:55:12;;;;;;;27.77;14.85;;;;;;;18.66;100.00;96267.72;10434288;23;20236;-58
2022/06/30 21:00:12;;;;;;;17.55;13.57;;;;;;;18.66;100.00;96262.44;10409045;28;20295;-59
2022/06/30 21:05:13;;;;;;;21.30;13.52;;;;;;;18.76;100.00;96252.13;10410119;28;20203;-58
2022/06/30 21:10:13;;;;;;;18.23;12.63;;;;;;;18.69;100.00;96248.72;10411026;28;20192;-58
2022/06/30 21:15:13;;;;;;;16.13;13.18;;;;;;;18.69;100.00;96246.06;10410820;28;20224;-59
2022/06/30 21:20:14;;;;;;;16.08;13.73;;;;;;;18.55;100.00;96226.81;10410966;28;20280;-56
2022/06/30 21:25:14;;;;;;;25.65;14.30;;;;;;;18.40;100.00;96226.34;10410559;28;20188;-57
2022/06/30 21:30:14;;;;;;;15.98;13.18;;;;;;;18.42;100.00;96226.94;10410654;28;20255;-58
2022/06/30 21:35:15;;;;;;;17.52;12.15;;;;;;;18.48;100.00;96221.59;10410216;28;20236;-59
2022/06/30 21:40:16;;;;;;;17.23;12.73;;;;;;;18.20;100.00;96226.53;10410459;28;20331;-60
2022/06/30 21:45:17;;;;;;;20.17;13.52;;;;;;;18.17;100.00;96235.72;10410460;28;20279;-60
2022/06/30 21:50:17;;;;;;;16.88;12.85;;;;;;;18.22;100.00;96238.50;10410033;28;20272;-59
2022/06/30 21:55:17;;;;;;;13.68;11.02;;;;;;;18.28;100.00;96250.09;10411975;28;20239;-59
2022/06/30 22:00:18;;;;;;;16.83;12.23;;;;;;;18.23;100.00;96247.31;10417223;28;20667;-54
2022/06/30 22:05:18;;;;;;;14.40;11.88;;;;;;;18.14;100.00;96252.84;10417114;28;20189;-59
2022/06/30 22:10:19;;;;;;;20.77;12.50;;;;;;;18.07;100.00;96245.97;10416979;28;20255;-56
2022/06/30 22:15:19;;;;;;;15.52;11.25;;;;;;;18.11;100.00;96232.06;10416664;28;20212;-60
2022/06/30 22:20:19;;;;;;;16.00;12.43;;;;;;;17.97;100.00;96228.72;10416709;28;20663;-58
2022/06/30 22:25:20;;;;;;;19.52;12.80;;;;;;;18.01;100.00;96210.56;10416112;28;20196;-59
2022/06/30 22:30:20;;;;;;;22.42;12.85;;;;;;;18.05;100.00;96197.69;10416877;28;20326;-60
2022/06/30 22:35:21;;;;;;;14.75;12.88;;;;;;;18.15;100.00;96193.50;10415854;28;20217;-59
2022/06/30 22:40:21;;;;;;;15.18;12.07;;;;;;;18.43;100.00;96189.59;10415782;28;20276;-59
2022/06/30 22:45:21;;;;;;;20.33;13.30;;;;;;;18.24;100.00;96202.00;10415701;28;20195;-58
2022/06/30 22:50:22;;;;;;;18.35;12.25;;;;;;;18.15;100.00;96208.63;10415330;28;20200;-59
2022/06/30 22:55:22;;;;;;;15.75;12.30;;;;;;;18.27;100.00;96209.53;10415082;28;20254;-58
2022/06/30 23:00:22;;;;;;;15.80;11.27;;;;;;;18.19;100.00;96204.47;10414914;28;20197;-58
2022/06/30 23:05:23;;;;;;;18.05;11.35;;;;;;;17.99;100.00;96209.94;10414777;28;20570;-60
2022/06/30 23:10:23;;;;;;;14.82;11.27;;;;;;;18.16;100.00;96207.56;10414737;28;20651;-56
2022/06/30 23:15:24;;;;;;;18.20;11.07;;;;;;;18.24;100.00;96217.91;10414241;28;20593;-59
2022/06/30 23:20:24;;;;;;;19.90;11.70;;;;;;;18.34;100.00;96218.22;10414290;28;20604;-60
2022/06/30 23:25:24;;;;;;;14.57;10.02;;;;;;;18.42;100.00;96219.78;10413945;28;20220;-60
2022/06/30 23:30:25;;;;;;;13.43;10.73;;;;;;;18.32;100.00;96222.13;10413248;28;20283;-57